createdAt,value
2023-02-17T00:00:29.598Z,98069.03
2023-02-17T00:02:58.053Z,98076.78
2023-02-17T00:05:26.434Z,98073.25
2023-02-17T00:07:54.700Z,98080.28
2023-02-17T00:10:22.516Z,98073.34
2023-02-17T00:12:50.615Z,98080.34
2023-02-17T00:15:18.451Z,98075.31
2023-02-17T00:17:47.583Z,98073.34
2023-02-17T00:20:15.657Z,98073.47
2023-02-17T00:22:43.460Z,98064.84
2023-02-17T00:25:11.276Z,98071.00
2023-02-17T00:27:39.311Z,98068.41
2023-02-17T00:30:09.182Z,98079.63
2023-02-17T00:32:37.809Z,98075.31
2023-02-17T00:35:08.422Z,98074.41
2023-02-17T00:37:36.497Z,98075.31
2023-02-17T00:40:04.735Z,98075.56
2023-02-17T00:42:32.547Z,98074.81
2023-02-17T00:45:00.401Z,98064.16
2023-02-17T00:47:28.351Z,98070.56
2023-02-17T00:49:56.174Z,98073.72
2023-02-17T00:52:25.467Z,98072.00
2023-02-17T00:54:53.740Z,98076.19
2023-02-17T00:57:22.181Z,98075.94
2023-02-17T00:59:49.995Z,98080.78
2023-02-17T01:02:20.405Z,98071.84
2023-02-17T01:04:48.393Z,98085.81
2023-02-17T01:07:16.144Z,98083.72
2023-02-17T01:09:45.532Z,98085.47
2023-02-17T01:12:13.287Z,98089.09
2023-02-17T01:14:41.243Z,98085.69
2023-02-17T01:17:09.211Z,98086.22
2023-02-17T01:19:37.024Z,98086.22
2023-02-17T01:22:04.969Z,98074.03
2023-02-17T01:24:32.912Z,98066.84
2023-02-17T01:27:02.011Z,98073.72
2023-02-17T01:29:29.757Z,98073.94
2023-02-17T01:31:57.614Z,98073.38
2023-02-17T01:34:25.372Z,98064.03
2023-02-17T01:36:53.086Z,98058.91
2023-02-17T01:39:20.823Z,98060.00
2023-02-17T01:41:48.690Z,98057.66
2023-02-17T01:44:19.518Z,98052.53
2023-02-17T01:46:49.186Z,98054.44
2023-02-17T01:49:23.635Z,98044.03
2023-02-17T01:51:55.120Z,98038.84
2023-02-17T01:54:26.661Z,98030.28
2023-02-17T01:56:55.810Z,98035.53
2023-02-17T01:59:24.923Z,98035.38
2023-02-17T02:01:56.751Z,98021.50
2023-02-17T02:04:27.493Z,98024.91
2023-02-17T02:06:55.678Z,98017.91
2023-02-17T02:09:26.200Z,98023.19
2023-02-17T02:11:53.979Z,98007.75
2023-02-17T02:14:23.908Z,98008.50
2023-02-17T02:16:56.057Z,98008.56
2023-02-17T02:19:58.994Z,98004.28
2023-02-17T02:22:54.918Z,98002.41
2023-02-17T02:25:45.980Z,97997.94
2023-02-17T02:28:22.615Z,97990.03
2023-02-17T02:31:19.964Z,97987.56
2023-02-17T02:33:51.901Z,97989.38
2023-02-17T02:36:22.755Z,97986.72
2023-02-17T02:38:54.764Z,97981.59
2023-02-17T02:41:25.334Z,97991.28
2023-02-17T02:43:53.298Z,97984.34
2023-02-17T02:46:21.107Z,97984.34
2023-02-17T02:48:51.554Z,97974.78
2023-02-17T02:51:30.423Z,97973.88
2023-02-17T02:54:22.370Z,97972.13
2023-02-17T02:57:01.889Z,97983.34
2023-02-17T02:59:39.380Z,97974.66
2023-02-17T03:02:12.613Z,97976.31
2023-02-17T03:04:46.060Z,97976.25
2023-02-17T03:07:21.355Z,97974.53
2023-02-17T03:09:49.645Z,97963.91
2023-02-17T03:12:17.659Z,97969.94
2023-02-17T03:14:46.339Z,97976.91
2023-02-17T03:17:14.379Z,97968.97
2023-02-17T03:19:45.573Z,97947.72
2023-02-17T03:22:18.479Z,97959.16
2023-02-17T03:24:46.335Z,97958.03
2023-02-17T03:27:14.156Z,97958.19
2023-02-17T03:29:42.309Z,97965.25
2023-02-17T03:32:10.340Z,97946.41
2023-02-17T03:34:38.196Z,97942.03
2023-02-17T03:37:07.456Z,97948.09
2023-02-17T03:39:35.277Z,97949.94
2023-02-17T03:42:03.324Z,97943.00
2023-02-17T03:44:31.109Z,97956.81
2023-02-17T03:46:58.913Z,97954.13
2023-02-17T03:49:26.764Z,97963.69
2023-02-17T03:51:54.591Z,97959.31
2023-02-17T03:54:23.770Z,97958.56
2023-02-17T03:56:51.575Z,97956.81
2023-02-17T03:59:19.451Z,97964.59
2023-02-17T04:01:47.214Z,97962.00
2023-02-17T04:04:15.335Z,97961.06
2023-02-17T04:06:43.120Z,97957.50
2023-02-17T04:09:11.138Z,97957.47
2023-02-17T04:11:40.273Z,97953.97
2023-02-17T04:14:08.295Z,97960.88
2023-02-17T04:16:39.057Z,97954.91
2023-02-17T04:19:07.339Z,97945.53
2023-02-17T04:21:35.614Z,97952.28
2023-02-17T04:24:03.788Z,97949.59
2023-02-17T04:26:31.881Z,97952.22
2023-02-17T04:29:01.251Z,97941.06
2023-02-17T04:31:29.268Z,97954.72
2023-02-17T04:33:57.166Z,97954.66
2023-02-17T04:36:24.951Z,97961.72
2023-02-17T04:38:52.740Z,97965.25
2023-02-17T04:41:20.520Z,97958.31
2023-02-17T04:43:48.547Z,97954.91
2023-02-17T04:46:17.906Z,97953.97
2023-02-17T04:48:45.755Z,97962.69
2023-02-17T04:51:13.532Z,97947.50
2023-02-17T04:53:41.565Z,97955.69
2023-02-17T04:56:09.387Z,97960.00
2023-02-17T04:58:37.237Z,97954.91
2023-02-17T05:01:05.472Z,97956.59
2023-02-17T05:03:34.654Z,97955.84
2023-02-17T05:06:02.431Z,97949.66
2023-02-17T05:08:30.297Z,97954.91
2023-02-17T05:10:58.069Z,97948.91
2023-02-17T05:13:27.529Z,97958.47
2023-02-17T05:15:55.342Z,97953.28
2023-02-17T05:18:23.116Z,97955.03
2023-02-17T05:20:52.850Z,97951.69
2023-02-17T05:23:20.701Z,97956.88
2023-02-17T05:25:48.494Z,97956.06
2023-02-17T05:28:16.276Z,97955.16
2023-02-17T05:30:44.017Z,97961.06
2023-02-17T05:33:11.768Z,97961.84
2023-02-17T05:35:39.970Z,97961.72
2023-02-17T05:38:09.319Z,97966.97
2023-02-17T05:40:37.191Z,97973.00
2023-02-17T05:43:05.049Z,97965.91
2023-02-17T05:45:32.822Z,97976.78
2023-02-17T05:48:00.645Z,97958.97
2023-02-17T05:50:28.475Z,97967.59
2023-02-17T05:52:56.250Z,97963.25
2023-02-17T05:55:25.393Z,97967.81
2023-02-17T05:57:53.170Z,97968.66
2023-02-17T06:00:21.178Z,97967.03
2023-02-17T06:02:49.077Z,97954.34
2023-02-17T06:05:17.307Z,97965.69
2023-02-17T06:07:45.137Z,97970.19
2023-02-17T06:10:13.094Z,97965.22
2023-02-17T06:12:42.253Z,97955.16
2023-02-17T06:15:10.524Z,97959.88
2023-02-17T06:17:38.384Z,97967.59
2023-02-17T06:20:07.482Z,97966.03
2023-02-17T06:22:35.276Z,97963.47
2023-02-17T06:25:03.122Z,97954.13
2023-02-17T06:27:30.873Z,97967.16
2023-02-17T06:30:00.134Z,97947.97
2023-02-17T06:32:27.906Z,97944.44
2023-02-17T06:34:55.699Z,97957.75
2023-02-17T06:37:23.837Z,97964.44
2023-02-17T06:39:51.642Z,97964.94
2023-02-17T06:42:19.420Z,97951.66
2023-02-17T06:44:48.203Z,97971.06
2023-02-17T06:47:17.362Z,97963.19
2023-02-17T06:49:45.142Z,97965.34
2023-02-17T06:52:13.015Z,97968.41
2023-02-17T06:54:40.823Z,97983.06
2023-02-17T06:57:08.589Z,97972.22
2023-02-17T06:59:36.516Z,97991.06
2023-02-17T07:02:04.360Z,97997.44
2023-02-17T07:04:33.834Z,97985.78
2023-02-17T07:07:01.585Z,98003.66
2023-02-17T07:09:29.368Z,97999.28
2023-02-17T07:11:57.544Z,97997.41
2023-02-17T07:14:25.723Z,97966.94
2023-02-17T07:16:53.961Z,97983.34
2023-02-17T07:19:22.128Z,97977.25
2023-02-17T07:21:51.308Z,97973.88
2023-02-17T07:24:19.484Z,97969.75
2023-02-17T07:26:47.339Z,97955.16
2023-02-17T07:29:15.122Z,97965.97
2023-02-17T07:31:43.100Z,97961.00
2023-02-17T07:34:10.892Z,97959.72
2023-02-17T07:36:38.667Z,97980.03
2023-02-17T07:39:08.153Z,97979.47
2023-02-17T07:41:35.923Z,97981.22
2023-02-17T07:44:03.703Z,97989.94
2023-02-17T07:46:31.572Z,97994.34
2023-02-17T07:48:59.441Z,97944.97
2023-02-17T07:51:28.346Z,97990.22
2023-02-17T07:53:56.281Z,97989.22
2023-02-17T07:56:25.909Z,97986.41
2023-02-17T07:58:53.744Z,97964.00
2023-02-17T08:01:23.226Z,97979.28
2023-02-17T08:03:52.060Z,97989.66
2023-02-17T08:06:21.217Z,97986.13
2023-02-17T08:09:07.214Z,97968.81
2023-02-17T08:11:53.987Z,97972.84
2023-02-17T08:14:22.354Z,97973.50
2023-02-17T08:16:50.216Z,97979.44
2023-02-17T08:19:18.288Z,97984.25
2023-02-17T08:21:46.298Z,97983.81
2023-02-17T08:24:14.253Z,97980.59
2023-02-17T08:26:43.572Z,97978.47
2023-02-17T08:29:11.376Z,97979.22
2023-02-17T08:31:39.701Z,97977.94
2023-02-17T08:34:09.808Z,97975.25
2023-02-17T08:36:38.481Z,97980.13
2023-02-17T08:39:07.024Z,97973.97
2023-02-17T08:41:36.988Z,97986.91
2023-02-17T08:44:09.703Z,97990.63
2023-02-17T08:46:38.197Z,97995.41
2023-02-17T08:49:06.996Z,97989.72
2023-02-17T08:51:35.757Z,97999.91
2023-02-17T08:54:04.896Z,97998.03
2023-02-17T08:56:32.814Z,97987.53
2023-02-17T08:59:01.121Z,97988.25
2023-02-17T09:01:30.616Z,97979.44
2023-02-17T09:03:59.989Z,97973.16
2023-02-17T09:06:33.751Z,97964.53
2023-02-17T09:09:01.557Z,97979.28
2023-02-17T09:11:29.525Z,97988.00
2023-02-17T09:13:57.313Z,97977.19
2023-02-17T09:16:25.396Z,97971.72
2023-02-17T09:18:54.825Z,97985.69
2023-02-17T09:21:23.161Z,98000.03
2023-02-17T09:23:51.157Z,97997.59
2023-02-17T09:26:19.576Z,98015.50
2023-02-17T09:28:48.198Z,98003.28
2023-02-17T09:31:18.731Z,98000.59
2023-02-17T09:33:47.813Z,98006.53
2023-02-17T09:36:18.577Z,98015.19
2023-02-17T09:38:46.633Z,98003.00
2023-02-17T09:41:19.876Z,97996.03
2023-02-17T09:43:47.912Z,98002.69
2023-02-17T09:46:19.173Z,98015.19
2023-02-17T09:48:49.578Z,98010.88
2023-02-17T09:51:23.648Z,98016.75
2023-02-17T09:53:54.948Z,98014.03
2023-02-17T09:56:26.398Z,98035.41
2023-02-17T09:58:55.289Z,98020.19
2023-02-17T10:01:27.466Z,98019.97
2023-02-17T10:03:59.109Z,98023.97
2023-02-17T10:06:30.847Z,98030.75
2023-02-17T10:09:02.390Z,98019.91
2023-02-17T10:11:33.792Z,97998.59
2023-02-17T10:14:04.696Z,98035.22
2023-02-17T10:16:37.281Z,98028.09
2023-02-17T10:19:11.799Z,98031.31
2023-02-17T10:21:44.231Z,98004.06
2023-02-17T10:24:12.016Z,98040.81
2023-02-17T10:26:50.229Z,98033.44
2023-02-17T10:29:23.683Z,98041.03
2023-02-17T10:32:02.689Z,98037.38
2023-02-17T10:34:36.222Z,98040.50
2023-02-17T10:37:06.716Z,98046.47
2023-02-17T10:39:45.491Z,98044.50
2023-02-17T10:42:20.482Z,98054.09
2023-02-17T10:44:50.035Z,98053.03
2023-02-17T10:47:18.108Z,98055.47
2023-02-17T10:49:49.898Z,98053.53
2023-02-17T10:52:20.377Z,98055.31
2023-02-17T10:54:52.105Z,98061.19
2023-02-17T10:57:21.350Z,98057.53
2023-02-17T10:59:50.587Z,98051.66
2023-02-17T11:02:20.753Z,98041.06
2023-02-17T11:04:50.168Z,98043.13
2023-02-17T11:07:21.222Z,98043.63
2023-02-17T11:09:54.614Z,98037.00
2023-02-17T11:12:24.432Z,98037.50
2023-02-17T11:14:54.911Z,98026.09
2023-02-17T11:17:26.763Z,98023.81
2023-02-17T11:20:04.000Z,98041.31
2023-02-17T11:22:37.188Z,98035.94
2023-02-17T11:25:08.232Z,98033.91
2023-02-17T11:27:36.165Z,98023.38
2023-02-17T11:30:15.291Z,98051.22
2023-02-17T11:32:43.098Z,98024.50
2023-02-17T11:35:22.411Z,98041.13
2023-02-17T11:37:51.999Z,98024.44
2023-02-17T11:40:27.116Z,98013.25
2023-02-17T11:42:59.430Z,98022.28
2023-02-17T11:45:29.389Z,98010.44
2023-02-17T11:48:09.431Z,98008.97
2023-02-17T11:50:42.570Z,97991.97
2023-02-17T11:53:22.790Z,98001.41
2023-02-17T11:55:59.443Z,97996.31
2023-02-17T11:58:35.281Z,98010.16
2023-02-17T12:01:10.335Z,98013.06
2023-02-17T12:03:47.647Z,98002.59
2023-02-17T12:06:19.337Z,98007.16
2023-02-17T12:08:59.317Z,98012.22
2023-02-17T12:11:31.855Z,97998.75
2023-02-17T12:14:13.398Z,98008.56
2023-02-17T12:16:48.388Z,97987.94
2023-02-17T12:19:29.804Z,98006.31
2023-02-17T12:22:04.806Z,98003.81
2023-02-17T12:24:42.601Z,98022.28
2023-02-17T12:27:29.529Z,97994.22
2023-02-17T12:30:05.945Z,97995.00
2023-02-17T12:32:44.762Z,97993.56
2023-02-17T12:35:17.345Z,98008.69
2023-02-17T12:37:50.629Z,97984.03
2023-02-17T12:40:26.967Z,97977.94
2023-02-17T12:42:57.965Z,97966.66
2023-02-17T12:45:31.516Z,97963.94
2023-02-17T12:48:03.327Z,97980.59
2023-02-17T12:50:34.683Z,97950.56
2023-02-17T12:53:06.406Z,97957.44
2023-02-17T12:55:38.821Z,97972.06
2023-02-17T12:58:09.345Z,97954.53
2023-02-17T13:00:40.691Z,97962.56
2023-02-17T13:03:09.022Z,97964.72
2023-02-17T13:05:40.257Z,97948.44
2023-02-17T13:08:09.461Z,97950.00
2023-02-17T13:10:40.174Z,97942.78
2023-02-17T13:13:11.001Z,97972.81
2023-02-17T13:15:42.311Z,97941.25
2023-02-17T13:18:14.194Z,97939.28
2023-02-17T13:21:00.667Z,97929.38
2023-02-17T13:23:38.113Z,97951.72
2023-02-17T13:26:31.832Z,97944.66
2023-02-17T13:29:33.451Z,97936.19
2023-02-17T13:32:03.496Z,97932.69
2023-02-17T13:34:35.002Z,97945.97
2023-02-17T13:37:15.183Z,97930.06
2023-02-17T13:39:43.111Z,97942.69
2023-02-17T13:42:44.201Z,97944.72
2023-02-17T13:45:16.040Z,97952.47
2023-02-17T13:47:44.366Z,97966.22
2023-02-17T13:50:29.208Z,97954.34
2023-02-17T13:52:57.512Z,97954.34
2023-02-17T13:55:25.483Z,97941.94
2023-02-17T13:57:55.697Z,97945.31
2023-02-17T14:00:25.906Z,97942.47
2023-02-17T14:02:55.580Z,97938.72
2023-02-17T14:05:28.048Z,97927.22
2023-02-17T14:07:59.681Z,97923.09
2023-02-17T14:10:28.388Z,97940.78
2023-02-17T14:12:59.221Z,97924.97
2023-02-17T14:15:29.245Z,97921.28
2023-02-17T14:17:57.542Z,97911.69
2023-02-17T14:20:31.572Z,97928.19
2023-02-17T14:23:05.213Z,97914.16
2023-02-17T14:25:35.551Z,97932.59
2023-02-17T14:28:05.088Z,97912.38
2023-02-17T14:30:34.827Z,97910.66
2023-02-17T14:33:07.004Z,97912.38
2023-02-17T14:35:35.710Z,97912.38
2023-02-17T14:38:11.567Z,97910.44
2023-02-17T14:40:40.296Z,97910.28
2023-02-17T14:43:09.526Z,97920.63
2023-02-17T14:45:37.311Z,97901.44
2023-02-17T14:48:05.402Z,97910.66
2023-02-17T14:50:33.343Z,97915.00
2023-02-17T14:53:01.169Z,97910.66
2023-02-17T14:55:33.717Z,97907.88
2023-02-17T14:58:01.634Z,97917.31
2023-02-17T15:00:30.878Z,97919.13
2023-02-17T15:02:58.759Z,97923.25
2023-02-17T15:05:26.578Z,97925.88
2023-02-17T15:07:54.449Z,97928.72
2023-02-17T15:10:26.680Z,97930.59
2023-02-17T15:12:54.962Z,97930.50
2023-02-17T15:15:23.082Z,97927.13
2023-02-17T15:17:52.269Z,97936.81
2023-02-17T15:20:20.129Z,97946.44
2023-02-17T15:22:52.668Z,97941.38
2023-02-17T15:25:23.168Z,97930.81
2023-02-17T15:27:51.309Z,97953.78
2023-02-17T15:30:20.402Z,97941.72
2023-02-17T15:32:48.688Z,97941.72
2023-02-17T15:35:20.687Z,97947.00
2023-02-17T15:37:48.488Z,97940.91
2023-02-17T15:40:18.500Z,97944.00
2023-02-17T15:42:47.838Z,97948.22
2023-02-17T15:45:18.357Z,97945.59
2023-02-17T15:47:46.369Z,97949.16
2023-02-17T15:50:19.194Z,97944.84
2023-02-17T15:52:50.065Z,97940.78
2023-02-17T15:55:18.747Z,97936.44
2023-02-17T15:57:48.663Z,97923.47
2023-02-17T16:00:21.916Z,97914.41
2023-02-17T16:02:50.206Z,97965.84
2023-02-17T16:05:20.378Z,97962.34
2023-02-17T16:07:49.637Z,97950.97
2023-02-17T16:10:18.886Z,97961.63
2023-02-17T16:12:47.113Z,97948.50
2023-02-17T16:15:16.499Z,97964.34
2023-02-17T16:17:44.407Z,97961.78
2023-02-17T16:20:16.748Z,97954.72
2023-02-17T16:22:45.687Z,97950.38
2023-02-17T16:25:16.657Z,97977.59
2023-02-17T16:27:45.694Z,97972.41
2023-02-17T16:30:18.197Z,97968.13
2023-02-17T16:32:46.526Z,97984.75
2023-02-17T16:35:15.902Z,97974.13
2023-02-17T16:37:46.840Z,97964.50
2023-02-17T16:40:17.763Z,97967.91
2023-02-17T16:42:45.699Z,97937.03
2023-02-17T16:45:17.786Z,97963.66
2023-02-17T16:47:47.617Z,97973.56
2023-02-17T16:50:19.325Z,97969.13
2023-02-17T16:52:47.173Z,97961.13
2023-02-17T16:55:20.372Z,97966.41
2023-02-17T16:57:48.599Z,97971.00
2023-02-17T17:00:18.889Z,97973.56
2023-02-17T17:02:46.978Z,97959.53
2023-02-17T17:05:14.828Z,97958.75
2023-02-17T17:07:42.988Z,97962.44
2023-02-17T17:10:17.033Z,97962.63
2023-02-17T17:12:47.446Z,97954.72
2023-02-17T17:15:16.345Z,97951.19
2023-02-17T17:17:46.206Z,97980.13
2023-02-17T17:20:16.420Z,97985.50
2023-02-17T17:22:46.643Z,97936.81
2023-02-17T17:25:14.934Z,97979.38
2023-02-17T17:27:42.932Z,97983.63
2023-02-17T17:30:17.320Z,97978.34
2023-02-17T17:32:45.172Z,97980.06
2023-02-17T17:35:12.982Z,97982.69
2023-02-17T17:37:40.807Z,97984.63
2023-02-17T17:40:11.771Z,97992.66
2023-02-17T17:42:39.533Z,97982.13
2023-02-17T17:45:07.532Z,97962.13
2023-02-17T17:47:36.648Z,98006.78
2023-02-17T17:50:04.512Z,97997.94
2023-02-17T17:52:32.533Z,98012.13
2023-02-17T17:55:00.310Z,98020.03
2023-02-17T17:57:28.142Z,98019.19
2023-02-17T17:59:55.889Z,98018.34
2023-02-17T18:02:23.706Z,98030.75
2023-02-17T18:04:52.852Z,98039.50
2023-02-17T18:07:20.670Z,98031.81
2023-02-17T18:09:48.501Z,98043.19
2023-02-17T18:12:17.579Z,98040.66
2023-02-17T18:14:46.040Z,98041.50
2023-02-17T18:17:15.729Z,98059.94
2023-02-17T18:19:43.488Z,98061.66
2023-02-17T18:22:12.615Z,98059.00
2023-02-17T18:24:41.267Z,98062.75
2023-02-17T18:27:09.087Z,98077.06
2023-02-17T18:29:36.826Z,98079.28
2023-02-17T18:32:04.747Z,98091.00
2023-02-17T18:34:32.666Z,98082.00
2023-02-17T18:37:00.462Z,98087.63
2023-02-17T18:39:29.630Z,98089.16
2023-02-17T18:41:57.418Z,98091.28
2023-02-17T18:44:25.183Z,98087.38
2023-02-17T18:46:52.959Z,98096.56
2023-02-17T18:49:20.806Z,98096.75
2023-02-17T18:51:48.651Z,98104.06
2023-02-17T18:54:16.474Z,98098.94
2023-02-17T18:56:45.594Z,98103.63
2023-02-17T18:59:13.453Z,98107.09
2023-02-17T19:01:43.245Z,98113.38
2023-02-17T19:04:11.993Z,98124.81
2023-02-17T19:06:40.178Z,98123.22
2023-02-17T19:09:08.012Z,98132.91
2023-02-17T19:11:35.999Z,98123.31
2023-02-17T19:14:05.137Z,98134.91
2023-02-17T19:16:33.367Z,98128.78
2023-02-17T19:19:01.914Z,98127.44
2023-02-17T19:21:29.689Z,98144.91
2023-02-17T19:23:57.654Z,98148.50
2023-02-17T19:26:25.461Z,98145.09
2023-02-17T19:28:53.223Z,98146.09
2023-02-17T19:31:22.429Z,98145.31
2023-02-17T19:33:50.560Z,98147.00
2023-02-17T19:36:20.717Z,98147.94
2023-02-17T19:38:49.615Z,98128.19
2023-02-17T19:41:17.961Z,98122.78
2023-02-17T19:43:46.394Z,98141.78
2023-02-17T19:46:14.926Z,98151.00
2023-02-17T19:48:44.116Z,98151.81
2023-02-17T19:51:13.746Z,98144.88
2023-02-17T19:53:43.034Z,98153.69
2023-02-17T19:56:12.588Z,98150.13
2023-02-17T19:58:41.031Z,98152.91
2023-02-17T20:01:10.494Z,98159.03
2023-02-17T20:03:38.464Z,98157.25
2023-02-17T20:06:09.856Z,98159.94
2023-02-17T20:08:39.651Z,98167.59
2023-02-17T20:11:08.499Z,98156.94
2023-02-17T20:13:45.342Z,98158.63
2023-02-17T20:16:14.903Z,98154.22
2023-02-17T20:18:45.385Z,98158.31
2023-02-17T20:21:16.953Z,98157.38
2023-02-17T20:23:44.833Z,98156.47
2023-02-17T20:26:14.797Z,98159.16
2023-02-17T20:28:42.626Z,98159.84
2023-02-17T20:31:10.932Z,98163.25
2023-02-17T20:33:39.286Z,98162.25
2023-02-17T20:36:08.104Z,98148.16
2023-02-17T20:38:38.274Z,98156.75
2023-02-17T20:41:06.763Z,98154.09
2023-02-17T20:43:34.789Z,98159.44
2023-02-17T20:46:02.815Z,98157.66
2023-02-17T20:48:30.667Z,98166.34
2023-02-17T20:50:59.451Z,98167.19
2023-02-17T20:53:27.465Z,98165.47
2023-02-17T20:55:57.020Z,98166.34
2023-02-17T20:58:24.767Z,98153.25
2023-02-17T21:00:52.594Z,98147.84
2023-02-17T21:03:20.402Z,98163.72
2023-02-17T21:05:48.147Z,98168.19
2023-02-17T21:08:15.862Z,98168.97
2023-02-17T21:10:43.619Z,98159.28
2023-02-17T21:13:12.810Z,98178.38
2023-02-17T21:15:40.764Z,98165.41
2023-02-17T21:18:08.940Z,98170.59
2023-02-17T21:20:36.748Z,98177.78
2023-02-17T21:23:04.502Z,98177.78
2023-02-17T21:25:32.398Z,98156.69
2023-02-17T21:28:00.121Z,98174.22
2023-02-17T21:30:29.270Z,98166.41
2023-02-17T21:32:56.997Z,98170.91
2023-02-17T21:35:24.759Z,98184.06
2023-02-17T21:37:52.526Z,98185.00
2023-02-17T21:40:20.606Z,98192.06
2023-02-17T21:43:06.170Z,98179.75
2023-02-17T21:45:39.610Z,98183.31
2023-02-17T21:48:07.754Z,98182.44
2023-02-17T21:50:35.504Z,98172.06
2023-02-17T21:53:03.268Z,98182.53
2023-02-17T21:55:31.048Z,98179.09
2023-02-17T21:57:58.908Z,98170.53
2023-02-17T22:00:26.760Z,98173.25
2023-02-17T22:02:55.923Z,98183.09
2023-02-17T22:05:23.710Z,98184.75
2023-02-17T22:07:51.904Z,98176.88
2023-02-17T22:10:19.946Z,98176.97
2023-02-17T22:12:47.762Z,98181.38
2023-02-17T22:15:16.248Z,98181.47
2023-02-17T22:17:44.054Z,98185.00
2023-02-17T22:20:15.169Z,98185.88
2023-02-17T22:22:42.972Z,98179.69
2023-02-17T22:25:10.749Z,98185.78
2023-02-17T22:27:38.523Z,98182.44
2023-02-17T22:30:08.524Z,98175.41
2023-02-17T22:32:36.715Z,98162.97
2023-02-17T22:35:04.710Z,98170.41
2023-02-17T22:37:33.835Z,98149.91
2023-02-17T22:40:01.615Z,98166.25
2023-02-17T22:42:29.564Z,98163.81
2023-02-17T22:44:57.302Z,98176.97
2023-02-17T22:47:25.046Z,98170.88
2023-02-17T22:49:52.811Z,98178.00
2023-02-17T22:52:20.599Z,98159.59
2023-02-17T22:54:49.819Z,98153.38
2023-02-17T22:57:17.583Z,98157.72
2023-02-17T22:59:45.356Z,98173.50
2023-02-17T23:02:13.230Z,98159.59
2023-02-17T23:04:43.253Z,98166.47
2023-02-17T23:07:11.052Z,98162.97
2023-02-17T23:09:38.751Z,98160.41
2023-02-17T23:12:08.629Z,98166.53
2023-02-17T23:14:38.424Z,98167.63
2023-02-17T23:17:09.518Z,98180.78
2023-02-17T23:19:38.106Z,98177.34
2023-02-17T23:22:08.215Z,98183.53
2023-02-17T23:24:36.029Z,98185.31
2023-02-17T23:27:04.029Z,98179.25
2023-02-17T23:29:33.431Z,98175.81
2023-02-17T23:32:01.911Z,98169.16
2023-02-17T23:34:30.023Z,98171.63
2023-02-17T23:36:58.271Z,98173.44
2023-02-17T23:39:26.646Z,98180.47
2023-02-17T23:41:54.486Z,98171.03
2023-02-17T23:44:22.380Z,98176.28
2023-02-17T23:46:51.855Z,98179.81
2023-02-17T23:49:19.888Z,98173.97
2023-02-17T23:51:48.116Z,98176.59
2023-02-17T23:54:16.466Z,98178.44
2023-02-17T23:56:44.831Z,98174.19
2023-02-17T23:59:12.896Z,98182.16
